createdAt,value
2023-04-09T00:01:04.533Z,98981.44
2023-04-09T00:03:09.467Z,98972.13
2023-04-09T00:05:14.710Z,98976.53
2023-04-09T00:07:19.332Z,98969.66
2023-04-09T00:09:24.288Z,98976.53
2023-04-09T00:11:31.854Z,98973.81
2023-04-09T00:13:39.551Z,98972.03
2023-04-09T00:15:45.047Z,98976.25
2023-04-09T00:17:49.949Z,98972.03
2023-04-09T00:19:54.881Z,98971.13
2023-04-09T00:21:59.767Z,98963.25
2023-04-09T00:24:04.640Z,98967.75
2023-04-09T00:26:09.756Z,98966.00
2023-04-09T00:28:18.716Z,98966.78
2023-04-09T00:30:23.771Z,98965.06
2023-04-09T00:32:28.822Z,98963.34
2023-04-09T00:34:34.114Z,98966.84
2023-04-09T00:36:39.125Z,98959.16
2023-04-09T00:38:44.123Z,98961.13
2023-04-09T00:40:52.181Z,98957.63
2023-04-09T00:42:57.268Z,98961.91
2023-04-09T00:45:04.994Z,98956.69
2023-04-09T00:47:09.881Z,98967.09
2023-04-09T00:49:15.056Z,98966.25
2023-04-09T00:51:21.204Z,98968.00
2023-04-09T00:53:26.151Z,98964.66
2023-04-09T00:55:32.176Z,98975.03
2023-04-09T00:57:37.708Z,98968.16
2023-04-09T00:59:43.388Z,98971.59
2023-04-09T01:01:50.968Z,98970.75
2023-04-09T01:03:56.098Z,98963.72
2023-04-09T01:06:08.814Z,98968.06
2023-04-09T01:08:22.362Z,98965.44
2023-04-09T01:10:32.188Z,98965.47
2023-04-09T01:12:45.742Z,98966.41
2023-04-09T01:14:57.725Z,98968.16
2023-04-09T01:17:08.523Z,98966.44
2023-04-09T01:19:27.166Z,98960.31
2023-04-09T01:21:36.666Z,98964.72
2023-04-09T01:23:50.927Z,98964.66
2023-04-09T01:26:06.548Z,98956.00
2023-04-09T01:28:29.111Z,98957.72
2023-04-09T01:30:35.131Z,98956.88
2023-04-09T01:32:41.947Z,98964.56
2023-04-09T01:34:49.244Z,98961.13
2023-04-09T01:36:58.232Z,98963.72
2023-04-09T01:39:04.403Z,98962.78
2023-04-09T01:41:10.765Z,98961.81
2023-04-09T01:43:17.768Z,98965.16
2023-04-09T01:45:26.063Z,98963.41
2023-04-09T01:47:31.617Z,98966.00
2023-04-09T01:49:37.110Z,98963.41
2023-04-09T01:51:42.202Z,98966.09
2023-04-09T01:53:47.243Z,98966.16
2023-04-09T01:55:52.283Z,98962.66
2023-04-09T01:57:57.185Z,98966.09
2023-04-09T02:00:02.629Z,98960.91
2023-04-09T02:02:31.533Z,98958.28
2023-04-09T02:04:42.106Z,98959.22
2023-04-09T02:06:51.517Z,98957.63
2023-04-09T02:08:57.251Z,98962.13
2023-04-09T02:11:07.113Z,98964.72
2023-04-09T02:13:19.957Z,98969.00
2023-04-09T02:15:25.268Z,98975.88
2023-04-09T02:17:32.932Z,98966.47
2023-04-09T02:19:44.884Z,98976.00
2023-04-09T02:21:49.916Z,98969.25
2023-04-09T02:23:55.829Z,98972.75
2023-04-09T02:26:00.844Z,98978.00
2023-04-09T02:28:05.857Z,98975.41
2023-04-09T02:30:12.006Z,98980.53
2023-04-09T02:32:17.434Z,98976.31
2023-04-09T02:34:25.078Z,98977.38
2023-04-09T02:36:30.103Z,98983.50
2023-04-09T02:38:35.524Z,98980.97
2023-04-09T02:40:40.478Z,98981.97
2023-04-09T02:42:45.488Z,98977.63
2023-04-09T02:44:50.577Z,98978.53
2023-04-09T02:46:57.252Z,98978.56
2023-04-09T02:49:02.269Z,98975.16
2023-04-09T02:51:11.164Z,98970.03
2023-04-09T02:53:16.170Z,98973.56
2023-04-09T02:55:21.782Z,98972.81
2023-04-09T02:57:26.785Z,98978.97
2023-04-09T02:59:33.134Z,98974.75
2023-04-09T03:01:38.601Z,98975.69
2023-04-09T03:03:44.116Z,98978.34
2023-04-09T03:05:49.195Z,98970.66
2023-04-09T03:07:56.811Z,98975.13
2023-04-09T03:10:01.885Z,98973.50
2023-04-09T03:12:06.957Z,98971.03
2023-04-09T03:14:11.738Z,98977.22
2023-04-09T03:16:16.694Z,98968.69
2023-04-09T03:18:21.663Z,98973.06
2023-04-09T03:20:26.540Z,98975.72
2023-04-09T03:22:31.564Z,98973.19
2023-04-09T03:24:39.120Z,98972.38
2023-04-09T03:26:44.737Z,98971.63
2023-04-09T03:28:51.888Z,98969.94
2023-04-09T03:30:56.859Z,98971.78
2023-04-09T03:33:02.403Z,98974.47
2023-04-09T03:35:11.432Z,98977.97
2023-04-09T03:37:18.479Z,98980.63
2023-04-09T03:39:23.522Z,98985.88
2023-04-09T03:41:31.662Z,98990.16
2023-04-09T03:43:41.288Z,98989.38
2023-04-09T03:45:46.856Z,98995.47
2023-04-09T03:47:58.872Z,98995.50
2023-04-09T03:50:04.339Z,98991.25
2023-04-09T03:52:22.251Z,98998.22
2023-04-09T03:54:36.148Z,99009.50
2023-04-09T03:56:47.366Z,99000.91
2023-04-09T03:58:54.959Z,99006.16
2023-04-09T04:01:05.415Z,99007.94
2023-04-09T04:03:31.131Z,99007.13
2023-04-09T04:05:50.805Z,99012.31
2023-04-09T04:07:56.188Z,99010.66
2023-04-09T04:10:07.320Z,99015.91
2023-04-09T04:12:14.988Z,99013.38
2023-04-09T04:14:31.584Z,99017.72
2023-04-09T04:16:44.227Z,99012.63
2023-04-09T04:18:52.493Z,99008.34
2023-04-09T04:20:58.046Z,99017.84
2023-04-09T04:23:03.013Z,99011.03
2023-04-09T04:25:09.245Z,99021.53
2023-04-09T04:27:16.917Z,99020.69
2023-04-09T04:29:22.535Z,99032.84
2023-04-09T04:31:33.921Z,99038.06
2023-04-09T04:33:39.132Z,99038.16
2023-04-09T04:35:48.981Z,99033.91
2023-04-09T04:38:27.293Z,99044.31
2023-04-09T04:40:33.226Z,99041.72
2023-04-09T04:42:42.520Z,99047.78
2023-04-09T04:44:52.162Z,99052.97
2023-04-09T04:47:19.590Z,99053.00
2023-04-09T04:49:24.552Z,99055.59
2023-04-09T04:51:30.391Z,99056.44
2023-04-09T04:53:46.541Z,99058.16
2023-04-09T04:55:52.737Z,99055.59
2023-04-09T04:58:05.118Z,99058.16
2023-04-09T05:00:19.415Z,99065.97
2023-04-09T05:02:25.580Z,99060.75
2023-04-09T05:04:53.005Z,99064.28
2023-04-09T05:07:02.970Z,99061.69
2023-04-09T05:09:07.905Z,99060.00
2023-04-09T05:11:20.058Z,99057.44
2023-04-09T05:13:28.964Z,99065.16
2023-04-09T05:15:33.970Z,99060.03
2023-04-09T05:17:38.920Z,99065.22
2023-04-09T05:19:45.586Z,99058.31
2023-04-09T05:21:51.105Z,99063.53
2023-04-09T05:23:59.923Z,99067.81
2023-04-09T05:26:09.673Z,99060.09
2023-04-09T05:28:29.477Z,99066.97
2023-04-09T05:30:44.227Z,99066.09
2023-04-09T05:32:50.406Z,99070.44
2023-04-09T05:34:55.199Z,99074.72
2023-04-09T05:37:00.296Z,99073.00
2023-04-09T05:39:05.828Z,99066.09
2023-04-09T05:41:10.888Z,99072.97
2023-04-09T05:43:29.343Z,99078.09
2023-04-09T05:45:34.407Z,99072.91
2023-04-09T05:47:39.339Z,99072.94
2023-04-09T05:49:53.078Z,99073.84
2023-04-09T05:51:57.984Z,99075.50
2023-04-09T05:54:06.492Z,99073.72
2023-04-09T05:56:18.318Z,99071.06
2023-04-09T05:58:34.100Z,99077.91
2023-04-09T06:00:40.063Z,99072.72
2023-04-09T06:02:45.229Z,99070.09
2023-04-09T06:04:50.004Z,99072.72
2023-04-09T06:06:55.866Z,99078.75
2023-04-09T06:09:00.751Z,99073.53
2023-04-09T06:11:07.995Z,99068.28
2023-04-09T06:13:13.307Z,99069.03
2023-04-09T06:15:21.647Z,99071.53
2023-04-09T06:17:26.649Z,99070.59
2023-04-09T06:19:31.667Z,99071.34
2023-04-09T06:21:36.584Z,99064.38
2023-04-09T06:23:41.588Z,99063.41
2023-04-09T06:25:46.436Z,99066.78
2023-04-09T06:27:51.368Z,99066.69
2023-04-09T06:29:56.352Z,99062.25
2023-04-09T06:32:04.021Z,99060.47
2023-04-09T06:34:08.937Z,99061.22
2023-04-09T06:36:14.252Z,99059.41
2023-04-09T06:38:18.859Z,99065.38
2023-04-09T06:40:23.835Z,99067.03
2023-04-09T06:42:28.859Z,99070.41
2023-04-09T06:44:47.527Z,99078.13
2023-04-09T06:46:52.559Z,99076.28
2023-04-09T06:49:00.653Z,99066.59
2023-04-09T06:51:05.766Z,99066.47
2023-04-09T06:53:10.685Z,99071.59
2023-04-09T06:55:15.693Z,99061.97
2023-04-09T06:57:20.697Z,99055.94
2023-04-09T06:59:25.581Z,99064.44
2023-04-09T07:01:30.628Z,99063.53
2023-04-09T07:03:35.913Z,99060.03
2023-04-09T07:05:43.279Z,99060.88
2023-04-09T07:07:48.253Z,99060.75
2023-04-09T07:09:56.612Z,99057.19
2023-04-09T07:12:01.583Z,99057.91
2023-04-09T07:14:06.504Z,99057.50
2023-04-09T07:16:11.603Z,99057.59
2023-04-09T07:18:16.490Z,99046.03
2023-04-09T07:20:21.635Z,99043.81
2023-04-09T07:22:29.603Z,99043.69
2023-04-09T07:24:34.591Z,99035.91
2023-04-09T07:26:39.466Z,99039.34
2023-04-09T07:28:44.412Z,99037.31
2023-04-09T07:30:49.382Z,99031.06
2023-04-09T07:32:55.318Z,99035.50
2023-04-09T07:35:02.573Z,99034.75
2023-04-09T07:37:07.598Z,99030.53
2023-04-09T07:39:15.172Z,99032.22
2023-04-09T07:41:20.178Z,99029.63
2023-04-09T07:43:25.068Z,99032.00
2023-04-09T07:45:30.038Z,99035.97
2023-04-09T07:47:35.495Z,99040.22
2023-04-09T07:49:40.518Z,99035.16
2023-04-09T07:51:46.208Z,99041.28
2023-04-09T07:53:51.223Z,99040.56
2023-04-09T07:55:58.828Z,99048.53
2023-04-09T07:58:04.388Z,99045.16
2023-04-09T08:00:11.015Z,99043.84
2023-04-09T08:02:18.744Z,99047.13
2023-04-09T08:04:23.806Z,99042.59
2023-04-09T08:06:29.006Z,99049.47
2023-04-09T08:08:33.850Z,99049.75
2023-04-09T08:10:38.753Z,99054.09
2023-04-09T08:12:46.335Z,99053.06
2023-04-09T08:14:51.245Z,99054.41
2023-04-09T08:16:56.652Z,99054.06
2023-04-09T08:19:01.595Z,99052.22
2023-04-09T08:21:08.667Z,99046.72
2023-04-09T08:23:13.640Z,99051.88
2023-04-09T08:25:18.548Z,99047.41
2023-04-09T08:27:23.526Z,99043.06
2023-04-09T08:29:32.258Z,99040.91
2023-04-09T08:31:38.179Z,99043.59
2023-04-09T08:33:43.095Z,99040.88
2023-04-09T08:35:48.084Z,99047.78
2023-04-09T08:37:52.912Z,99044.03
2023-04-09T08:39:57.860Z,99035.91
2023-04-09T08:42:03.883Z,99036.03
2023-04-09T08:44:08.873Z,99037.66
2023-04-09T08:46:16.774Z,99036.63
2023-04-09T08:48:23.073Z,99041.84
2023-04-09T08:50:28.031Z,99040.81
2023-04-09T08:52:35.355Z,99033.66
2023-04-09T08:54:40.541Z,99037.81
2023-04-09T08:56:46.408Z,99030.91
2023-04-09T08:58:51.947Z,99035.38
2023-04-09T09:00:57.395Z,99040.63
2023-04-09T09:03:08.828Z,99037.13
2023-04-09T09:05:14.010Z,99026.41
2023-04-09T09:07:19.926Z,99031.34
2023-04-09T09:09:25.086Z,99030.06
2023-04-09T09:11:30.578Z,99033.72
2023-04-09T09:13:35.534Z,99030.09
2023-04-09T09:15:40.697Z,99042.91
2023-04-09T09:17:57.105Z,99047.56
2023-04-09T09:20:22.627Z,99037.16
2023-04-09T09:22:28.394Z,99041.47
2023-04-09T09:24:34.215Z,99042.03
2023-04-09T09:26:41.830Z,99042.69
2023-04-09T09:28:47.431Z,99038.78
2023-04-09T09:30:52.733Z,99043.47
2023-04-09T09:32:58.034Z,99043.34
2023-04-09T09:35:09.250Z,99042.41
2023-04-09T09:37:29.667Z,99030.28
2023-04-09T09:39:47.180Z,99035.75
2023-04-09T09:42:09.532Z,99035.56
2023-04-09T09:44:15.773Z,99040.72
2023-04-09T09:46:21.064Z,99039.94
2023-04-09T09:48:28.348Z,99031.94
2023-04-09T09:50:38.338Z,99036.50
2023-04-09T09:52:47.828Z,99037.16
2023-04-09T09:54:56.075Z,99036.84
2023-04-09T09:57:07.661Z,99039.44
2023-04-09T09:59:22.918Z,99037.88
2023-04-09T10:01:31.071Z,99031.91
2023-04-09T10:03:38.617Z,99029.44
2023-04-09T10:05:48.124Z,99023.75
2023-04-09T10:07:52.993Z,99034.66
2023-04-09T10:10:00.287Z,99033.91
2023-04-09T10:12:07.824Z,99030.66
2023-04-09T10:14:13.105Z,99032.22
2023-04-09T10:16:18.897Z,99033.34
2023-04-09T10:18:24.156Z,99026.06
2023-04-09T10:20:35.603Z,99029.53
2023-04-09T10:22:46.082Z,99021.44
2023-04-09T10:24:51.555Z,99017.81
2023-04-09T10:26:58.500Z,99017.72
2023-04-09T10:29:08.842Z,99013.34
2023-04-09T10:31:14.051Z,99010.00
2023-04-09T10:33:19.708Z,99007.63
2023-04-09T10:35:28.545Z,99004.00
2023-04-09T10:37:33.519Z,99006.25
2023-04-09T10:39:44.311Z,99006.03
2023-04-09T10:41:51.770Z,99008.56
2023-04-09T10:43:56.967Z,99006.81
2023-04-09T10:46:02.175Z,98997.72
2023-04-09T10:48:07.952Z,99000.88
2023-04-09T10:50:24.228Z,99004.69
2023-04-09T10:52:35.268Z,98992.69
2023-04-09T10:54:49.345Z,98994.78
2023-04-09T10:57:29.788Z,98996.00
2023-04-09T10:59:34.693Z,98991.44
2023-04-09T11:01:39.613Z,98989.13
2023-04-09T11:03:48.029Z,98993.50
2023-04-09T11:05:56.890Z,98995.13
2023-04-09T11:08:07.659Z,98989.13
2023-04-09T11:10:15.521Z,98987.88
2023-04-09T11:12:20.435Z,98988.34
2023-04-09T11:14:25.962Z,98978.06
2023-04-09T11:16:32.759Z,98986.22
2023-04-09T11:18:37.981Z,98986.03
2023-04-09T11:20:43.482Z,98988.28
2023-04-09T11:22:48.397Z,98978.38
2023-04-09T11:24:53.741Z,98984.25
2023-04-09T11:27:02.204Z,98986.38
2023-04-09T11:29:09.470Z,98979.44
2023-04-09T11:31:14.705Z,98980.50
2023-04-09T11:33:20.434Z,98979.97
2023-04-09T11:35:26.386Z,98979.75
2023-04-09T11:37:31.427Z,98974.53
2023-04-09T11:39:39.711Z,98981.06
2023-04-09T11:41:44.671Z,98981.13
2023-04-09T11:43:55.217Z,98976.22
2023-04-09T11:46:00.553Z,98975.00
2023-04-09T11:48:05.882Z,98977.03
2023-04-09T11:50:12.510Z,98965.47
2023-04-09T11:52:17.785Z,98964.28
2023-04-09T11:54:22.672Z,98974.13
2023-04-09T11:56:27.736Z,98968.53
2023-04-09T11:58:32.644Z,98962.13
2023-04-09T12:00:43.625Z,98963.53
2023-04-09T12:02:49.988Z,98958.03
2023-04-09T12:04:55.308Z,98956.88
2023-04-09T12:07:01.339Z,98960.16
2023-04-09T12:09:06.442Z,98962.66
2023-04-09T12:11:12.220Z,98961.59
2023-04-09T12:13:19.861Z,98959.88
2023-04-09T12:15:27.388Z,98965.13
2023-04-09T12:17:35.215Z,98950.72
2023-04-09T12:19:40.210Z,98961.97
2023-04-09T12:21:53.132Z,98958.91
2023-04-09T12:23:58.003Z,98959.41
2023-04-09T12:26:03.238Z,98959.94
2023-04-09T12:28:09.357Z,98958.88
2023-04-09T12:30:14.623Z,98950.34
2023-04-09T12:32:19.656Z,98955.22
2023-04-09T12:34:27.507Z,98953.66
2023-04-09T12:36:32.533Z,98952.19
2023-04-09T12:38:37.423Z,98954.59
2023-04-09T12:40:44.445Z,98950.28
2023-04-09T12:42:50.151Z,98945.94
2023-04-09T12:44:55.057Z,98940.16
2023-04-09T12:47:00.068Z,98944.28
2023-04-09T12:49:05.935Z,98938.38
2023-04-09T12:51:14.895Z,98936.63
2023-04-09T12:53:19.834Z,98936.31
2023-04-09T12:55:24.936Z,98931.28
2023-04-09T12:57:32.046Z,98930.28
2023-04-09T12:59:36.958Z,98930.13
2023-04-09T13:01:44.654Z,98930.72
2023-04-09T13:03:49.801Z,98930.69
2023-04-09T13:05:54.796Z,98933.00
2023-04-09T13:08:04.738Z,98932.63
2023-04-09T13:10:10.628Z,98920.66
2023-04-09T13:12:16.212Z,98925.97
2023-04-09T13:14:21.160Z,98932.28
2023-04-09T13:16:27.628Z,98928.84
2023-04-09T13:18:32.581Z,98925.91
2023-04-09T13:20:37.466Z,98921.34
2023-04-09T13:22:42.669Z,98921.19
2023-04-09T13:24:50.073Z,98921.47
2023-04-09T13:26:55.317Z,98923.31
2023-04-09T13:29:00.033Z,98927.88
2023-04-09T13:31:05.572Z,98916.03
2023-04-09T13:33:10.677Z,98910.47
2023-04-09T13:35:16.821Z,98921.19
2023-04-09T13:37:21.748Z,98914.94
2023-04-09T13:39:26.841Z,98908.22
2023-04-09T13:41:39.349Z,98909.69
2023-04-09T13:43:47.863Z,98901.81
2023-04-09T13:45:54.186Z,98905.84
2023-04-09T13:48:01.249Z,98907.59
2023-04-09T13:50:13.290Z,98907.00
2023-04-09T13:52:18.345Z,98909.22
2023-04-09T13:54:23.233Z,98904.91
2023-04-09T13:56:28.800Z,98896.19
2023-04-09T13:58:36.446Z,98891.56
2023-04-09T14:00:41.672Z,98892.16
2023-04-09T14:02:46.800Z,98892.84
2023-04-09T14:04:51.485Z,98895.28
2023-04-09T14:06:57.615Z,98888.53
2023-04-09T14:09:05.220Z,98890.09
2023-04-09T14:11:14.084Z,98884.28
2023-04-09T14:13:19.052Z,98887.16
2023-04-09T14:15:26.792Z,98881.56
2023-04-09T14:17:32.239Z,98883.97
2023-04-09T14:19:37.170Z,98874.75
2023-04-09T14:21:42.761Z,98876.09
2023-04-09T14:23:47.711Z,98876.25
2023-04-09T14:25:53.600Z,98880.38
2023-04-09T14:27:59.223Z,98874.81
2023-04-09T14:30:05.250Z,98874.44
2023-04-09T14:32:12.774Z,98879.16
2023-04-09T14:34:17.968Z,98868.53
2023-04-09T14:36:22.701Z,98862.81
2023-04-09T14:38:27.814Z,98868.75
2023-04-09T14:40:35.311Z,98870.53
2023-04-09T14:42:40.222Z,98863.19
2023-04-09T14:44:45.156Z,98861.00
2023-04-09T14:46:50.229Z,98858.09
2023-04-09T14:48:57.796Z,98860.53
2023-04-09T14:51:02.745Z,98858.44
2023-04-09T14:53:09.421Z,98854.47
2023-04-09T14:55:14.955Z,98858.28
2023-04-09T14:57:19.825Z,98848.00
2023-04-09T14:59:24.762Z,98847.66
2023-04-09T15:01:31.289Z,98846.47
2023-04-09T15:04:22.945Z,98845.56
2023-04-09T15:06:32.453Z,98854.78
2023-04-09T15:08:37.338Z,98839.13
2023-04-09T15:10:44.770Z,98846.91
2023-04-09T15:12:49.987Z,98840.03
2023-04-09T15:14:55.013Z,98844.78
2023-04-09T15:16:59.984Z,98843.63
2023-04-09T15:19:05.285Z,98848.94
2023-04-09T15:21:13.154Z,98850.13
2023-04-09T15:23:20.691Z,98846.47
2023-04-09T15:25:25.693Z,98846.66
2023-04-09T15:27:30.681Z,98838.69
2023-04-09T15:29:36.431Z,98841.41
2023-04-09T15:31:41.697Z,98836.31
2023-04-09T15:33:47.350Z,98837.16
2023-04-09T15:35:52.373Z,98837.06
2023-04-09T15:37:57.194Z,98835.03
2023-04-09T15:40:04.827Z,98839.97
2023-04-09T15:42:11.118Z,98839.50
2023-04-09T15:44:39.708Z,98841.91
2023-04-09T15:46:44.649Z,98841.84
2023-04-09T15:48:49.636Z,98834.91
2023-04-09T15:50:54.657Z,98836.59
2023-04-09T15:52:59.682Z,98835.66
2023-04-09T15:55:10.527Z,98841.06
2023-04-09T15:57:15.504Z,98830.56
2023-04-09T15:59:20.916Z,98834.13
2023-04-09T16:01:26.181Z,98827.09
2023-04-09T16:03:35.589Z,98836.06
2023-04-09T16:05:40.553Z,98830.41
2023-04-09T16:07:45.527Z,98842.78
2023-04-09T16:09:50.593Z,98835.28
2023-04-09T16:11:58.477Z,98842.75
2023-04-09T16:14:03.643Z,98843.66
2023-04-09T16:16:09.179Z,98843.81
2023-04-09T16:18:14.120Z,98845.44
2023-04-09T16:20:19.636Z,98843.34
2023-04-09T16:22:24.666Z,98837.66
2023-04-09T16:24:30.925Z,98833.75
2023-04-09T16:26:35.840Z,98836.16
2023-04-09T16:28:43.399Z,98840.38
2023-04-09T16:30:48.312Z,98838.34
2023-04-09T16:32:53.497Z,98843.28
2023-04-09T16:35:00.865Z,98835.09
2023-04-09T16:37:05.775Z,98842.06
2023-04-09T16:39:11.117Z,98838.44
2023-04-09T16:41:16.013Z,98840.22
2023-04-09T16:43:20.996Z,98832.25
2023-04-09T16:45:29.768Z,98842.91
2023-04-09T16:47:34.947Z,98845.59
2023-04-09T16:49:40.049Z,98839.44
2023-04-09T16:51:46.315Z,98844.38
2023-04-09T16:53:51.246Z,98846.25
2023-04-09T16:55:56.321Z,98838.19
2023-04-09T16:58:01.329Z,98852.09
2023-04-09T17:00:07.627Z,98847.25
2023-04-09T17:02:15.194Z,98846.47
2023-04-09T17:04:20.447Z,98845.94
2023-04-09T17:06:25.398Z,98844.47
2023-04-09T17:08:30.399Z,98842.31
2023-04-09T17:10:35.545Z,98850.53
2023-04-09T17:12:40.525Z,98847.38
2023-04-09T17:14:45.572Z,98853.41
2023-04-09T17:16:50.346Z,98855.75
2023-04-09T17:18:57.894Z,98859.50
2023-04-09T17:21:03.052Z,98856.41
2023-04-09T17:23:10.233Z,98867.53
2023-04-09T17:25:16.131Z,98862.94
2023-04-09T17:27:21.182Z,98859.81
2023-04-09T17:29:25.898Z,98855.97
2023-04-09T17:31:30.823Z,98866.72
2023-04-09T17:33:35.750Z,98865.13
2023-04-09T17:35:45.026Z,98860.03
2023-04-09T17:37:50.018Z,98869.09
2023-04-09T17:39:54.906Z,98866.69
2023-04-09T17:42:01.891Z,98868.59
2023-04-09T17:44:07.095Z,98866.31
2023-04-09T17:46:12.362Z,98871.25
2023-04-09T17:48:18.094Z,98866.41
2023-04-09T17:50:23.197Z,98874.59
2023-04-09T17:52:36.792Z,98879.34
2023-04-09T17:54:45.538Z,98877.13
2023-04-09T17:56:50.556Z,98885.19
2023-04-09T17:58:55.681Z,98887.03
2023-04-09T18:01:01.091Z,98881.16
2023-04-09T18:03:09.448Z,98883.19
2023-04-09T18:05:17.146Z,98891.06
2023-04-09T18:07:22.296Z,98892.97
2023-04-09T18:11:54.947Z,98893.22
2023-04-09T18:14:01.208Z,98899.47
2023-04-09T18:16:06.436Z,98896.84
2023-04-09T18:18:11.696Z,98900.44
2023-04-09T18:20:16.695Z,98902.53
2023-04-09T18:22:21.644Z,98900.22
2023-04-09T18:24:29.529Z,98900.34
2023-04-09T18:26:34.768Z,98908.34
2023-04-09T18:28:39.655Z,98902.47
2023-04-09T18:30:45.090Z,98899.97
2023-04-09T18:32:51.895Z,98900.03
2023-04-09T18:34:57.162Z,98901.06
2023-04-09T18:37:02.186Z,98909.13
2023-04-09T18:39:09.752Z,98917.28
2023-04-09T18:41:24.902Z,98919.06
2023-04-09T18:43:29.907Z,98923.50
2023-04-09T18:45:34.803Z,98924.41
2023-04-09T18:47:40.757Z,98934.91
2023-04-09T18:49:45.800Z,98924.63
2023-04-09T18:51:50.780Z,98932.63
2023-04-09T18:53:56.155Z,98929.97
2023-04-09T18:56:01.013Z,98938.03
2023-04-09T18:58:12.710Z,98937.34
2023-04-09T19:00:18.089Z,98934.91
2023-04-09T19:02:22.887Z,98937.69
2023-04-09T19:04:30.589Z,98935.16
2023-04-09T19:06:36.619Z,98941.28
2023-04-09T19:08:41.824Z,98948.22
2023-04-09T19:10:47.769Z,98948.53
2023-04-09T19:12:54.141Z,98951.19
2023-04-09T19:15:04.736Z,98952.03
2023-04-09T19:17:09.853Z,98945.97
2023-04-09T19:19:14.937Z,98952.13
2023-04-09T19:21:19.964Z,98957.34
2023-04-09T19:23:24.959Z,98946.97
2023-04-09T19:25:30.144Z,98953.88
2023-04-09T19:27:35.036Z,98962.63
2023-04-09T19:29:40.014Z,98955.81
2023-04-09T19:31:47.662Z,98955.97
2023-04-09T19:33:52.730Z,98956.13
2023-04-09T19:35:58.602Z,98959.66
2023-04-09T19:38:04.969Z,98959.69
2023-04-09T19:40:11.809Z,98963.25
2023-04-09T19:42:16.772Z,98960.72
2023-04-09T19:44:22.120Z,98966.03
2023-04-09T19:46:26.862Z,98967.94
2023-04-09T19:48:34.425Z,98962.78
2023-04-09T19:50:41.141Z,98961.91
2023-04-09T19:52:46.286Z,98961.03
2023-04-09T19:54:51.260Z,98962.94
2023-04-09T19:56:56.244Z,98967.44
2023-04-09T19:59:01.186Z,98968.47
2023-04-09T20:01:06.326Z,98966.78
2023-04-09T20:03:11.588Z,98974.59
2023-04-09T20:05:22.494Z,98972.97
2023-04-09T20:07:27.407Z,98973.06
2023-04-09T20:09:32.495Z,98972.25
2023-04-09T20:11:37.472Z,98975.78
2023-04-09T20:13:42.344Z,98973.22
2023-04-09T20:15:47.496Z,98970.88
2023-04-09T20:17:53.740Z,98971.84
2023-04-09T20:19:58.784Z,98970.38
2023-04-09T20:22:06.296Z,98972.06
2023-04-09T20:24:11.580Z,98979.88
2023-04-09T20:26:16.556Z,98978.28
2023-04-09T20:28:22.121Z,98978.31
2023-04-09T20:30:27.102Z,98974.00
2023-04-09T20:32:32.655Z,98977.56
2023-04-09T20:34:37.793Z,98973.19
2023-04-09T20:36:44.062Z,98976.00
2023-04-09T20:38:51.767Z,98977.81
2023-04-09T20:40:56.915Z,98973.56
2023-04-09T20:43:01.932Z,98980.66
2023-04-09T20:45:07.902Z,98978.09
2023-04-09T20:47:13.189Z,98979.91
2023-04-09T20:49:18.289Z,98975.53
2023-04-09T20:51:23.171Z,98978.16
2023-04-09T20:53:28.840Z,98977.31
2023-04-09T20:55:37.241Z,98983.53
2023-04-09T20:57:42.600Z,98991.44
2023-04-09T20:59:47.606Z,98993.38
2023-04-09T21:01:54.086Z,98993.47
2023-04-09T21:03:59.135Z,98988.31
2023-04-09T21:06:04.187Z,98991.78
2023-04-09T21:08:14.727Z,98989.19
2023-04-09T21:10:19.815Z,98989.38
2023-04-09T21:12:28.188Z,98989.44
2023-04-09T21:14:33.771Z,98995.53
2023-04-09T21:16:39.534Z,98992.16
2023-04-09T21:18:45.060Z,98993.09
2023-04-09T21:20:50.543Z,98987.13
2023-04-09T21:22:56.370Z,98988.84
2023-04-09T21:25:03.341Z,98996.66
2023-04-09T21:27:08.389Z,98995.00
2023-04-09T21:29:15.915Z,98992.50
2023-04-09T21:31:20.928Z,98990.88
2023-04-09T21:33:27.524Z,98994.44
2023-04-09T21:35:34.462Z,98988.41
2023-04-09T21:37:39.920Z,98992.84
2023-04-09T21:39:44.946Z,98991.22
2023-04-09T21:41:49.813Z,98983.47
2023-04-09T21:43:54.793Z,98984.41
2023-04-09T21:46:03.226Z,98982.75
2023-04-09T21:48:09.349Z,98988.09
2023-04-09T21:50:15.760Z,98987.25
2023-04-09T21:52:20.702Z,98990.81
2023-04-09T21:54:25.571Z,98993.41
2023-04-09T21:56:30.580Z,98983.13
2023-04-09T21:58:35.570Z,98993.69
2023-04-09T22:00:40.865Z,98988.53
2023-04-09T22:02:48.931Z,98986.88
2023-04-09T22:04:54.317Z,98989.75
2023-04-09T22:06:59.342Z,98989.75
2023-04-09T22:09:04.724Z,98991.59
2023-04-09T22:11:10.378Z,98992.59
2023-04-09T22:13:15.028Z,98990.94
2023-04-09T22:15:20.234Z,98992.69
2023-04-09T22:17:25.273Z,98996.19
2023-04-09T22:19:34.201Z,98990.09
2023-04-09T22:21:39.138Z,98986.78
2023-04-09T22:23:44.055Z,98987.75
2023-04-09T22:25:48.938Z,98998.19
2023-04-09T22:27:55.025Z,98988.66
2023-04-09T22:30:03.006Z,98993.94
2023-04-09T22:32:08.112Z,98990.50
2023-04-09T22:34:20.644Z,98999.22
2023-04-09T22:36:30.067Z,98991.50
2023-04-09T22:38:35.025Z,98995.00
2023-04-09T22:40:40.285Z,98987.28
2023-04-09T22:42:45.912Z,98991.72
2023-04-09T22:44:51.073Z,98996.03
2023-04-09T22:46:56.004Z,98993.50
2023-04-09T22:49:05.032Z,98997.03
2023-04-09T22:51:10.827Z,98998.91
2023-04-09T22:53:21.884Z,98996.34
2023-04-09T22:55:27.599Z,98998.09
2023-04-09T22:57:32.887Z,99006.81
2023-04-09T22:59:40.734Z,99006.19
2023-04-09T23:01:49.175Z,99008.03
2023-04-09T23:03:54.275Z,99001.13
2023-04-09T23:05:59.208Z,99007.25
2023-04-09T23:08:04.200Z,99015.06
2023-04-09T23:10:14.431Z,99006.50
2023-04-09T23:12:19.331Z,99013.44
2023-04-09T23:14:24.203Z,99013.56
2023-04-09T23:16:29.164Z,99008.41
2023-04-09T23:18:34.093Z,99017.91
2023-04-09T23:20:39.483Z,99022.22
2023-04-09T23:22:44.648Z,99024.81
2023-04-09T23:24:49.371Z,99018.00
2023-04-09T23:26:56.883Z,99021.56
2023-04-09T23:29:01.993Z,99017.31
2023-04-09T23:31:07.197Z,99021.66
2023-04-09T23:33:11.912Z,99023.50
2023-04-09T23:35:17.420Z,99019.25
2023-04-09T23:37:22.374Z,99015.81
2023-04-09T23:39:27.237Z,99012.34
2023-04-09T23:41:32.198Z,99015.00
2023-04-09T23:43:40.163Z,99005.47
2023-04-09T23:45:46.302Z,99007.28
2023-04-09T23:47:51.666Z,99012.53
2023-04-09T23:49:56.592Z,99012.56
2023-04-09T23:52:01.538Z,99002.44
2023-04-09T23:54:07.084Z,98999.09
2023-04-09T23:56:12.233Z,98993.13
2023-04-09T23:58:17.882Z,98987.13
